createdAt,value
2018-06-17T00:01:59.107Z,101761.50
2018-06-17T00:05:01.123Z,101755.73
2018-06-17T00:08:03.239Z,101747.44
2018-06-17T00:11:06.306Z,101755.40
2018-06-17T00:14:08.450Z,101761.26
2018-06-17T00:17:10.495Z,101760.10
2018-06-17T00:20:14.123Z,101764.44
2018-06-17T00:23:16.053Z,101766.53
2018-06-17T00:26:18.058Z,101770.85
2018-06-17T00:29:20.142Z,101768.67
2018-06-17T00:32:22.176Z,101776.42
2018-06-17T00:35:24.286Z,101781.70
2018-06-17T00:38:26.319Z,101782.05
2018-06-17T00:41:28.373Z,101778.32
2018-06-17T00:44:30.455Z,101774.78
2018-06-17T00:47:32.533Z,101780.05
2018-06-17T00:50:34.617Z,101774.87
2018-06-17T00:53:36.654Z,101773.61
2018-06-17T00:56:38.759Z,101765.41
2018-06-17T00:59:40.795Z,101762.91
2018-06-17T01:02:44.064Z,101771.04
2018-06-17T01:05:46.044Z,101766.00
2018-06-17T01:08:48.132Z,101770.55
2018-06-17T01:11:50.230Z,101773.22
2018-06-17T01:14:52.367Z,101778.71
2018-06-17T01:17:54.462Z,101782.43
2018-06-17T01:20:56.607Z,101780.39
2018-06-17T01:23:58.606Z,101777.00
2018-06-17T01:27:01.660Z,101777.02
2018-06-17T01:30:04.552Z,101776.77
2018-06-17T01:33:06.616Z,101783.30
2018-06-17T01:36:08.727Z,101777.20
2018-06-17T01:39:10.779Z,101784.27
2018-06-17T01:42:13.887Z,101782.92
2018-06-17T01:45:16.028Z,101786.66
2018-06-17T01:48:18.207Z,101790.09
2018-06-17T01:51:20.296Z,101795.50
2018-06-17T01:54:22.418Z,101803.62
2018-06-17T01:57:24.425Z,101796.44
2018-06-17T02:00:26.371Z,101798.13
2018-06-17T02:03:34.039Z,101802.74
2018-06-17T02:06:43.051Z,101798.90
2018-06-17T02:09:50.878Z,101799.09
2018-06-17T02:12:52.989Z,101798.64
2018-06-17T02:15:55.034Z,101816.72
2018-06-17T02:18:57.133Z,101825.35
2018-06-17T02:21:59.126Z,101836.01
2018-06-17T02:25:01.238Z,101835.22
2018-06-17T02:28:03.263Z,101832.47
2018-06-17T02:31:05.586Z,101829.51
2018-06-17T02:34:07.667Z,101827.59
2018-06-17T02:37:09.891Z,101829.01
2018-06-17T02:40:11.890Z,101833.08
2018-06-17T02:43:13.888Z,101833.35
2018-06-17T02:46:21.578Z,101835.25
2018-06-17T02:49:29.638Z,101832.28
2018-06-17T02:52:37.546Z,101829.53
2018-06-17T02:55:39.679Z,101829.99
2018-06-17T02:58:41.742Z,101821.16
2018-06-17T03:01:43.906Z,101829.29
2018-06-17T03:04:45.968Z,101840.62
2018-06-17T03:07:48.664Z,101839.63
2018-06-17T03:10:50.747Z,101841.18
2018-06-17T03:13:52.890Z,101839.72
2018-06-17T03:16:55.114Z,101843.83
2018-06-17T03:19:58.290Z,101843.57
2018-06-17T03:23:00.323Z,101840.27
2018-06-17T03:27:12.227Z,101850.49
2018-06-17T03:30:20.015Z,101852.48
2018-06-17T03:33:27.876Z,101858.91
2018-06-17T03:36:29.906Z,101853.96
2018-06-17T03:39:31.977Z,101845.22
2018-06-17T03:42:34.019Z,101851.01
2018-06-17T03:45:36.012Z,101857.37
2018-06-17T03:48:38.237Z,101869.58
2018-06-17T03:51:40.347Z,101874.07
2018-06-17T03:54:42.412Z,101872.22
2018-06-17T03:57:44.507Z,101875.43
2018-06-17T04:00:46.582Z,101875.52
2018-06-17T04:03:49.830Z,101881.87
2018-06-17T04:06:52.098Z,101891.32
2018-06-17T04:09:54.245Z,101898.20
2018-06-17T04:12:56.411Z,101905.16
2018-06-17T04:15:58.389Z,101906.32
2018-06-17T04:19:00.679Z,101911.25
2018-06-17T04:22:02.688Z,101912.00
2018-06-17T04:25:04.734Z,101915.63
2018-06-17T04:28:06.866Z,101910.05
2018-06-17T04:31:08.863Z,101912.90
2018-06-17T04:34:10.962Z,101911.87
2018-06-17T04:37:13.021Z,101912.08
2018-06-17T04:40:15.084Z,101905.65
2018-06-17T04:43:17.138Z,101913.53
2018-06-17T04:46:20.350Z,101915.11
2018-06-17T04:49:22.420Z,101915.46
2018-06-17T04:52:24.570Z,101923.05
2018-06-17T04:55:26.646Z,101926.95
2018-06-17T04:58:28.707Z,101934.40
2018-06-17T05:01:30.799Z,101926.89
2018-06-17T05:04:32.895Z,101931.05
2018-06-17T05:07:34.931Z,101939.78
2018-06-17T05:10:38.030Z,101934.07
2018-06-17T05:13:40.100Z,101935.70
2018-06-17T05:16:42.166Z,101939.91
2018-06-17T05:19:44.121Z,101940.49
2018-06-17T05:22:46.210Z,101943.66
2018-06-17T05:25:49.417Z,101950.22
2018-06-17T05:28:51.567Z,101957.08
2018-06-17T05:31:53.636Z,101962.35
2018-06-17T05:34:55.705Z,101960.17
2018-06-17T05:37:57.970Z,101964.00
2018-06-17T05:41:00.085Z,101957.92
2018-06-17T05:44:02.689Z,101955.91
2018-06-17T05:47:04.724Z,101953.68
2018-06-17T05:50:06.894Z,101959.92
2018-06-17T05:53:09.107Z,101955.82
2018-06-17T05:56:11.589Z,101959.32
2018-06-17T05:59:13.742Z,101959.49
2018-06-17T06:02:15.843Z,101964.39
2018-06-17T06:05:18.572Z,101967.09
2018-06-17T06:08:20.735Z,101971.96
2018-06-17T06:11:22.815Z,101972.38
2018-06-17T06:14:26.454Z,101971.91
2018-06-17T06:17:29.869Z,101971.85
2018-06-17T06:20:31.943Z,101969.32
2018-06-17T06:23:35.643Z,101966.65
2018-06-17T06:26:37.748Z,101973.03
2018-06-17T06:29:39.812Z,101976.73
2018-06-17T06:32:41.856Z,101979.78
2018-06-17T06:35:43.936Z,101984.08
2018-06-17T06:38:46.002Z,101981.75
2018-06-17T06:41:48.072Z,101985.15
2018-06-17T06:44:50.837Z,101988.70
2018-06-17T06:47:52.983Z,101987.21
2018-06-17T06:50:55.024Z,101981.89
2018-06-17T06:53:57.191Z,101984.62
2018-06-17T06:56:59.210Z,101987.84
2018-06-17T07:00:01.170Z,101988.51
2018-06-17T07:03:14.990Z,101983.73
2018-06-17T07:06:28.640Z,101989.43
2018-06-17T07:09:42.787Z,101989.83
2018-06-17T07:12:44.907Z,101994.49
2018-06-17T07:15:58.695Z,101997.24
2018-06-17T07:19:00.831Z,101996.46
2018-06-17T07:22:03.213Z,102004.77
2018-06-17T07:25:05.336Z,102001.05
2018-06-17T07:29:22.268Z,102000.23
2018-06-17T07:32:24.462Z,101996.73
2018-06-17T07:35:26.662Z,101996.24
2018-06-17T07:38:29.023Z,102000.95
2018-06-17T07:41:31.317Z,101999.60
2018-06-17T07:44:33.343Z,101995.03
2018-06-17T07:47:35.461Z,102006.38
2018-06-17T07:50:50.116Z,101998.35
2018-06-17T07:53:52.230Z,101995.21
2018-06-17T07:56:54.514Z,101993.43
2018-06-17T07:59:56.750Z,102002.46
2018-06-17T08:02:58.928Z,101999.33
2018-06-17T08:06:00.927Z,102000.12
2018-06-17T08:09:03.231Z,101993.57
2018-06-17T08:12:05.618Z,101992.87
2018-06-17T08:15:07.630Z,101989.57
2018-06-17T08:18:09.751Z,101989.28
2018-06-17T08:21:11.822Z,101986.23
2018-06-17T08:24:13.972Z,101988.19
2018-06-17T08:27:17.248Z,101991.31
2018-06-17T08:30:23.309Z,101988.60
2018-06-17T08:33:27.685Z,101973.39
2018-06-17T08:36:29.856Z,101979.40
2018-06-17T08:39:31.904Z,101971.86
2018-06-17T08:42:34.075Z,101976.25
2018-06-17T08:45:36.177Z,101986.97
2018-06-17T08:48:38.170Z,101986.86
2018-06-17T08:51:40.325Z,101993.12
2018-06-17T08:54:42.425Z,101995.19
2018-06-17T08:57:44.371Z,101990.63
2018-06-17T09:00:46.842Z,101991.06
2018-06-17T09:03:50.178Z,101992.46
2018-06-17T09:06:52.350Z,101993.96
2018-06-17T09:09:54.399Z,101998.98
2018-06-17T09:12:56.379Z,102002.56
2018-06-17T09:15:58.481Z,101996.76
2018-06-17T09:19:00.518Z,101992.10
2018-06-17T09:22:02.607Z,101991.59
2018-06-17T09:25:04.810Z,101993.49
2018-06-17T09:28:06.874Z,101993.63
2018-06-17T09:31:09.105Z,101992.92
2018-06-17T09:34:11.170Z,101988.75
2018-06-17T09:37:13.115Z,101995.76
2018-06-17T09:40:15.227Z,101988.77
2018-06-17T09:43:17.263Z,101994.75
2018-06-17T09:46:19.243Z,101993.38
2018-06-17T09:49:21.511Z,101993.08
2018-06-17T09:52:23.599Z,101998.31
2018-06-17T09:55:25.790Z,101996.98
2018-06-17T09:58:27.857Z,101993.36
2018-06-17T10:01:29.930Z,101995.32
2018-06-17T10:04:32.062Z,102000.77
2018-06-17T10:07:34.111Z,101991.98
2018-06-17T10:10:46.667Z,101995.75
2018-06-17T10:13:48.803Z,101992.87
2018-06-17T10:16:50.887Z,101994.59
2018-06-17T10:19:52.951Z,101998.33
2018-06-17T10:22:55.140Z,101998.50
2018-06-17T10:25:57.197Z,101997.50
2018-06-17T10:28:59.264Z,102000.56
2018-06-17T10:32:01.344Z,101996.16
2018-06-17T10:35:03.427Z,101988.49
2018-06-17T10:38:06.582Z,101983.05
2018-06-17T10:41:08.652Z,101978.73
2018-06-17T10:44:10.610Z,101975.24
2018-06-17T10:47:12.747Z,101969.71
2018-06-17T10:50:15.140Z,101965.47
2018-06-17T10:53:17.267Z,101971.96
2018-06-17T10:56:20.581Z,101973.12
2018-06-17T10:59:22.721Z,101976.26
2018-06-17T11:02:25.060Z,101969.19
2018-06-17T11:05:27.187Z,101971.08
2018-06-17T11:08:29.228Z,101963.29
2018-06-17T11:11:31.290Z,101957.66
2018-06-17T11:14:33.376Z,101959.93
2018-06-17T11:17:35.434Z,101960.06
2018-06-17T11:20:37.487Z,101956.43
2018-06-17T11:23:40.007Z,101960.64
2018-06-17T11:26:42.577Z,101958.44
2018-06-17T11:29:45.061Z,101961.35
2018-06-17T11:32:47.107Z,101966.87
2018-06-17T11:35:50.306Z,101964.15
2018-06-17T11:38:52.756Z,101962.86
2018-06-17T11:41:55.188Z,101969.38
2018-06-17T11:44:57.847Z,101970.07
2018-06-17T11:47:59.970Z,101972.66
2018-06-17T11:51:02.195Z,101966.67
2018-06-17T11:54:04.825Z,101965.68
2018-06-17T11:57:18.762Z,101970.74
2018-06-17T12:00:21.060Z,101963.83
2018-06-17T12:03:23.629Z,101961.51
2018-06-17T12:06:28.059Z,101969.08
2018-06-17T12:09:30.172Z,101961.35
2018-06-17T12:12:32.415Z,101961.69
2018-06-17T12:15:34.356Z,101964.57
2018-06-17T12:18:36.538Z,101963.30
2018-06-17T12:21:39.020Z,101962.59
2018-06-17T12:24:41.595Z,101964.76
2018-06-17T12:27:43.976Z,101962.66
2018-06-17T12:30:45.986Z,101960.62
2018-06-17T12:33:48.433Z,101956.38
2018-06-17T12:36:52.025Z,101961.20
2018-06-17T12:39:54.123Z,101959.36
2018-06-17T12:42:57.184Z,101960.99
2018-06-17T12:45:59.131Z,101958.52
2018-06-17T12:49:02.286Z,101957.50
2018-06-17T12:52:06.438Z,101960.82
2018-06-17T12:55:08.532Z,101958.56
2018-06-17T12:58:10.806Z,101955.65
2018-06-17T13:01:13.145Z,101955.72
2018-06-17T13:04:16.306Z,101953.90
2018-06-17T13:07:18.651Z,101961.28
2018-06-17T13:10:20.876Z,101964.44
2018-06-17T13:13:23.262Z,101954.88
2018-06-17T13:16:25.195Z,101955.21
2018-06-17T13:19:27.694Z,101957.64
2018-06-17T13:22:29.813Z,101952.01
2018-06-17T13:25:31.977Z,101956.06
2018-06-17T13:28:34.046Z,101952.40
2018-06-17T13:31:36.787Z,101957.62
2018-06-17T13:34:38.898Z,101958.36
2018-06-17T13:37:40.878Z,101956.16
2018-06-17T13:40:43.037Z,101955.54
2018-06-17T13:43:45.154Z,101953.93
2018-06-17T13:46:47.177Z,101948.06
2018-06-17T13:49:49.435Z,101946.16
2018-06-17T13:52:51.952Z,101944.34
2018-06-17T13:55:54.758Z,101937.83
2018-06-17T13:58:56.827Z,101937.53
2018-06-17T14:01:58.838Z,101934.36
2018-06-17T14:05:01.654Z,101931.15
2018-06-17T14:08:04.704Z,101932.39
2018-06-17T14:11:06.874Z,101932.16
2018-06-17T14:14:08.949Z,101939.75
2018-06-17T14:17:11.097Z,101939.85
2018-06-17T14:20:13.898Z,101942.61
2018-06-17T14:23:16.097Z,101938.64
2018-06-17T14:26:18.124Z,101939.45
2018-06-17T14:29:20.326Z,101937.62
2018-06-17T14:32:22.429Z,101945.46
2018-06-17T14:35:24.495Z,101937.95
2018-06-17T14:38:26.448Z,101938.55
2018-06-17T14:41:28.540Z,101943.56
2018-06-17T14:44:36.420Z,101932.91
2018-06-17T14:47:44.195Z,101936.55
2018-06-17T14:50:52.048Z,101933.91
2018-06-17T14:53:54.609Z,101927.70
2018-06-17T14:56:56.755Z,101926.74
2018-06-17T14:59:58.860Z,101924.92
2018-06-17T15:03:01.027Z,101931.05
2018-06-17T15:06:03.149Z,101934.95
2018-06-17T15:09:07.013Z,101938.78
2018-06-17T15:12:13.691Z,101938.53
2018-06-17T15:15:15.847Z,101943.41
2018-06-17T15:18:18.137Z,101941.22
2018-06-17T15:21:20.081Z,101942.52
2018-06-17T15:24:22.288Z,101944.38
2018-06-17T15:27:25.059Z,101942.54
2018-06-17T15:30:27.111Z,101941.51
2018-06-17T15:33:35.311Z,101935.36
2018-06-17T15:36:43.241Z,101940.75
2018-06-17T15:39:54.379Z,101947.02
2018-06-17T15:42:56.543Z,101948.55
2018-06-17T15:45:59.068Z,101946.58
2018-06-17T15:49:04.225Z,101952.40
2018-06-17T15:52:07.083Z,101953.01
2018-06-17T15:55:09.360Z,101950.10
2018-06-17T15:58:11.414Z,101955.40
2018-06-17T16:01:14.536Z,101955.90
2018-06-17T16:04:16.631Z,101955.81
2018-06-17T16:07:20.306Z,101958.47
2018-06-17T16:10:22.363Z,101955.91
2018-06-17T16:13:30.216Z,101960.36
2018-06-17T16:16:38.181Z,101957.57
2018-06-17T16:19:45.966Z,101959.06
2018-06-17T16:22:49.186Z,101960.26
2018-06-17T16:25:51.157Z,101962.05
2018-06-17T16:28:53.239Z,101962.97
2018-06-17T16:31:55.399Z,101964.95
2018-06-17T16:34:58.353Z,101968.01
2018-06-17T16:38:00.419Z,101977.24
2018-06-17T16:41:02.549Z,101977.09
2018-06-17T16:44:05.662Z,101976.56
2018-06-17T16:47:07.682Z,101978.83
2018-06-17T16:50:09.971Z,101974.14
2018-06-17T16:53:19.440Z,101968.48
2018-06-17T16:56:27.178Z,101971.41
2018-06-17T16:59:35.489Z,101971.56
2018-06-17T17:02:37.968Z,101971.49
2018-06-17T17:05:40.046Z,101975.19
2018-06-17T17:08:42.561Z,101978.25
2018-06-17T17:11:45.010Z,101979.42
2018-06-17T17:14:47.080Z,101980.00
2018-06-17T17:17:50.628Z,101989.13
2018-06-17T17:20:52.679Z,101994.82
2018-06-17T17:23:55.539Z,101998.98
2018-06-17T17:26:58.690Z,101997.99
2018-06-17T17:30:00.700Z,102002.16
2018-06-17T17:33:08.963Z,102011.26
2018-06-17T17:36:16.790Z,102017.96
2018-06-17T17:39:26.008Z,102019.13
2018-06-17T17:42:28.856Z,102017.16
2018-06-17T17:45:35.884Z,102015.74
2018-06-17T17:48:39.656Z,102019.88
2018-06-17T17:51:43.672Z,102023.93
2018-06-17T17:54:49.481Z,102030.07
2018-06-17T17:57:51.859Z,102038.01
2018-06-17T18:00:54.308Z,102037.30
2018-06-17T18:03:56.731Z,102040.61
2018-06-17T18:06:58.913Z,102048.19
2018-06-17T18:10:01.416Z,102054.76
2018-06-17T18:13:05.975Z,102057.34
2018-06-17T18:16:08.455Z,102061.75
2018-06-17T18:19:10.474Z,102066.37
2018-06-17T18:22:13.019Z,102068.63
2018-06-17T18:25:21.247Z,102077.14
2018-06-17T18:28:29.270Z,102078.16
2018-06-17T18:31:36.094Z,102078.77
2018-06-17T18:34:44.406Z,102081.20
2018-06-17T18:37:47.627Z,102085.62
2018-06-17T18:40:51.475Z,102091.11
2018-06-17T18:43:53.613Z,102099.52
2018-06-17T18:46:56.122Z,102106.25
2018-06-17T18:49:58.595Z,102105.71
2018-06-17T18:53:01.119Z,102108.93
2018-06-17T18:56:03.232Z,102114.21
2018-06-17T18:59:05.460Z,102109.71
2018-06-17T19:02:07.578Z,102115.00
2018-06-17T19:05:09.626Z,102118.82
2018-06-17T19:08:17.512Z,102120.19
2018-06-17T19:11:25.353Z,102124.52
2018-06-17T19:14:33.260Z,102121.98
2018-06-17T19:18:09.728Z,102124.83
2018-06-17T19:21:13.251Z,102137.09
2018-06-17T19:24:15.459Z,102139.01
2018-06-17T19:27:17.634Z,102142.69
2018-06-17T19:30:19.729Z,102147.78
2018-06-17T19:33:21.795Z,102151.07
2018-06-17T19:36:23.871Z,102156.35
2018-06-17T19:39:25.986Z,102157.72
2018-06-17T19:42:28.109Z,102163.02
2018-06-17T19:45:30.336Z,102164.30
2018-06-17T19:48:32.450Z,102167.63
2018-06-17T19:51:40.383Z,102165.62
2018-06-17T19:54:48.170Z,102172.62
2018-06-17T19:57:55.918Z,102171.10
2018-06-17T20:01:00.073Z,102174.71
2018-06-17T20:04:02.262Z,102179.45
2018-06-17T20:07:04.441Z,102180.65
2018-06-17T20:10:06.685Z,102178.57
2018-06-17T20:13:08.771Z,102175.29
2018-06-17T20:16:10.815Z,102172.47
2018-06-17T20:19:12.886Z,102171.26
2018-06-17T20:22:14.955Z,102168.32
2018-06-17T20:25:16.922Z,102172.95
2018-06-17T20:28:19.011Z,102176.79
2018-06-17T20:31:21.089Z,102178.06
2018-06-17T20:34:30.949Z,102181.88
2018-06-17T20:37:38.714Z,102183.14
2018-06-17T20:41:50.506Z,102184.30
2018-06-17T20:44:53.530Z,102187.69
2018-06-17T20:47:55.654Z,102184.96
2018-06-17T20:50:58.763Z,102190.96
2018-06-17T20:54:00.826Z,102194.10
2018-06-17T20:57:02.936Z,102200.12
2018-06-17T21:00:05.463Z,102203.07
2018-06-17T21:03:07.563Z,102198.54
2018-06-17T21:06:09.639Z,102205.07
2018-06-17T21:09:12.100Z,102214.53
2018-06-17T21:12:14.098Z,102219.94
2018-06-17T21:15:17.438Z,102226.01
2018-06-17T21:18:25.386Z,102227.81
2018-06-17T21:21:33.189Z,102232.75
2018-06-17T21:24:40.968Z,102237.87
2018-06-17T21:27:44.413Z,102237.05
2018-06-17T21:30:46.375Z,102243.40
2018-06-17T21:33:48.447Z,102240.77
2018-06-17T21:36:50.519Z,102242.72
2018-06-17T21:39:52.462Z,102244.18
2018-06-17T21:42:55.515Z,102249.61
2018-06-17T21:45:57.524Z,102251.45
2018-06-17T21:48:59.601Z,102257.23
2018-06-17T21:52:01.638Z,102255.10
2018-06-17T21:55:03.769Z,102260.84
2018-06-17T21:58:05.927Z,102262.74
2018-06-17T22:01:08.080Z,102262.65
2018-06-17T22:04:16.011Z,102261.82
2018-06-17T22:07:18.035Z,102268.15
2018-06-17T22:10:25.755Z,102269.92
2018-06-17T22:13:32.419Z,102270.49
2018-06-17T22:16:40.220Z,102273.73
2018-06-17T22:19:42.307Z,102275.49
2018-06-17T22:22:44.335Z,102276.50
2018-06-17T22:25:46.408Z,102281.67
2018-06-17T22:28:49.557Z,102283.25
2018-06-17T22:31:51.578Z,102289.87
2018-06-17T22:34:54.416Z,102289.66
2018-06-17T22:37:56.378Z,102289.51
2018-06-17T22:40:58.307Z,102287.51
2018-06-17T22:44:02.310Z,102290.70
2018-06-17T22:47:04.374Z,102293.22
2018-06-17T22:50:07.039Z,102292.10
2018-06-17T22:53:21.664Z,102298.63
2018-06-17T22:56:29.511Z,102298.39
2018-06-17T22:59:37.371Z,102300.48
2018-06-17T23:02:45.147Z,102303.31
2018-06-17T23:05:52.842Z,102298.59
2018-06-17T23:09:01.796Z,102297.35
2018-06-17T23:12:04.044Z,102295.49
2018-06-17T23:15:06.379Z,102300.69
2018-06-17T23:18:08.446Z,102305.21
2018-06-17T23:21:10.542Z,102302.14
2018-06-17T23:24:12.634Z,102296.40
2018-06-17T23:27:14.691Z,102306.49
2018-06-17T23:30:16.754Z,102307.44
2018-06-17T23:33:18.819Z,102307.25
2018-06-17T23:36:21.827Z,102306.65
2018-06-17T23:39:24.356Z,102310.01
2018-06-17T23:42:26.368Z,102315.01
2018-06-17T23:45:29.367Z,102319.12
2018-06-17T23:48:37.159Z,102322.45
2018-06-17T23:51:45.101Z,102323.92
2018-06-17T23:54:52.871Z,102327.69
2018-06-17T23:57:54.972Z,102333.05
